createdAt,value
2019-02-09T00:03:07.746Z,7.65
2019-02-09T00:10:38.990Z,10.20
2019-02-09T00:13:08.930Z,9.80
2019-02-09T00:15:38.973Z,8.40
2019-02-09T00:18:09.772Z,7.70
2019-02-09T00:20:39.408Z,7.30
2019-02-09T00:23:10.020Z,6.80
2019-02-09T00:25:41.763Z,6.30
2019-02-09T00:33:10.854Z,6.30
2019-02-09T00:37:38.122Z,5.10
2019-02-09T00:40:07.742Z,8.10
2019-02-09T00:42:38.663Z,9.40
2019-02-09T00:45:08.856Z,7.60
2019-02-09T00:51:13.677Z,5.60
2019-02-09T00:53:42.301Z,6.90
2019-02-09T00:56:12.694Z,5.90
2019-02-09T00:58:41.968Z,5.40
2019-02-09T01:01:29.916Z,6.50
2019-02-09T01:03:58.821Z,5.80
2019-02-09T01:06:27.769Z,6.85
2019-02-09T01:09:37.759Z,5.63
2019-02-09T01:12:08.645Z,5.35
2019-02-09T01:14:37.740Z,5.30
2019-02-09T01:17:09.641Z,7.15
2019-02-09T01:19:38.812Z,6.07
2019-02-09T01:24:39.100Z,5.25
2019-02-09T01:27:08.770Z,4.30
2019-02-09T01:29:39.658Z,5.20
2019-02-09T01:32:08.779Z,6.80
2019-02-09T01:34:37.847Z,5.80
2019-02-09T01:37:08.641Z,4.00
2019-02-09T01:39:37.794Z,4.50
2019-02-09T01:44:35.643Z,6.00
2019-02-09T01:47:06.672Z,5.60
2019-02-09T01:49:35.901Z,4.85
2019-02-09T01:52:06.100Z,5.13
2019-02-09T01:54:37.029Z,6.03
2019-02-09T01:57:06.707Z,4.65
2019-02-09T01:59:35.377Z,4.27
2019-02-09T02:02:05.514Z,4.90
2019-02-09T02:04:35.875Z,6.00
2019-02-09T02:10:26.836Z,5.10
2019-02-09T02:15:24.350Z,5.60
2019-02-09T02:17:53.647Z,4.50
2019-02-09T02:20:24.932Z,4.80
2019-02-09T02:22:53.887Z,5.30
2019-02-09T02:25:23.742Z,4.47
2019-02-09T02:30:27.057Z,3.80
2019-02-09T02:32:55.381Z,3.70
2019-02-09T02:35:24.657Z,4.90
2019-02-09T02:37:52.600Z,3.70
2019-02-09T02:40:21.421Z,5.80
2019-02-09T02:42:49.777Z,3.95
2019-02-09T02:45:18.835Z,4.13
2019-02-09T02:47:47.236Z,3.30
2019-02-09T02:50:35.111Z,4.70
2019-02-09T02:53:04.402Z,4.90
2019-02-09T02:55:33.020Z,3.50
2019-02-09T02:58:00.923Z,3.00
2019-02-09T03:03:18.892Z,5.35
2019-02-09T03:05:47.789Z,3.35
2019-02-09T03:08:15.849Z,3.25
2019-02-09T03:11:04.706Z,4.80
2019-02-09T03:16:02.065Z,3.60
2019-02-09T03:18:30.820Z,3.80
2019-02-09T03:21:18.871Z,3.30
2019-02-09T03:23:48.701Z,2.70
2019-02-09T03:26:18.584Z,3.10
2019-02-09T03:28:47.898Z,4.70
2019-02-09T03:31:19.257Z,3.25
2019-02-09T03:36:16.847Z,3.20
2019-02-09T03:38:48.026Z,2.40
2019-02-09T03:41:17.590Z,5.17
2019-02-09T03:43:47.949Z,3.30
2019-02-09T03:46:16.931Z,3.20
2019-02-09T03:48:47.336Z,4.05
2019-02-09T03:51:17.241Z,2.60
2019-02-09T03:53:48.361Z,4.25
2019-02-09T03:58:47.811Z,4.30
2019-02-09T04:01:17.015Z,2.90
2019-02-09T04:03:47.833Z,3.20
2019-02-09T04:06:17.683Z,2.60
2019-02-09T04:13:45.840Z,2.70
2019-02-09T04:18:43.947Z,3.80
2019-02-09T04:21:13.889Z,2.70
2019-02-09T04:23:43.838Z,4.13
2019-02-09T04:26:13.780Z,3.25
2019-02-09T04:31:27.759Z,2.35
2019-02-09T04:33:58.401Z,2.40
2019-02-09T04:38:57.806Z,2.60
2019-02-09T04:41:27.711Z,4.00
2019-02-09T04:43:57.137Z,2.70
2019-02-09T04:46:26.699Z,2.30
2019-02-09T04:48:56.345Z,2.50
2019-02-09T04:51:28.122Z,3.65
2019-02-09T04:53:57.227Z,3.10
2019-02-09T04:56:28.748Z,3.10
2019-02-09T04:58:58.853Z,2.45
2019-02-09T05:01:29.521Z,2.90
2019-02-09T05:03:59.783Z,2.20
2019-02-09T05:09:01.711Z,2.10
2019-02-09T05:16:28.822Z,2.30
2019-02-09T05:18:57.758Z,2.40
2019-02-09T05:21:26.841Z,3.00
2019-02-09T05:26:24.961Z,2.20
2019-02-09T05:31:23.775Z,2.20
2019-02-09T05:38:50.775Z,2.30
2019-02-09T05:41:19.803Z,2.75
2019-02-09T05:43:48.761Z,2.40
2019-02-09T05:48:45.379Z,1.80
2019-02-09T05:51:13.854Z,2.10
2019-02-09T05:53:42.139Z,1.60
2019-02-09T05:56:10.294Z,2.20
2019-02-09T05:58:39.532Z,2.00
2019-02-09T06:01:07.349Z,2.27
2019-02-09T06:03:34.832Z,2.50
2019-02-09T06:06:02.457Z,2.25
2019-02-09T06:10:57.841Z,2.55
2019-02-09T06:13:25.453Z,2.05
2019-02-09T06:15:53.142Z,2.20
2019-02-09T06:18:21.650Z,1.70
2019-02-09T06:20:49.617Z,1.90
2019-02-09T06:23:18.036Z,1.60
2019-02-09T06:25:46.977Z,1.80
2019-02-09T06:28:14.706Z,1.60
2019-02-09T06:30:43.685Z,2.50
2019-02-09T06:33:11.474Z,1.90
2019-02-09T06:35:38.899Z,1.85
2019-02-09T06:38:07.814Z,1.70
2019-02-09T06:40:35.132Z,1.92
2019-02-09T06:43:03.815Z,2.77
2019-02-09T06:45:32.334Z,2.27
2019-02-09T06:48:24.886Z,2.37
2019-02-09T06:50:54.323Z,1.70
2019-02-09T06:53:22.058Z,1.77
2019-02-09T06:55:49.581Z,1.60
2019-02-09T06:58:16.921Z,2.50
2019-02-09T07:00:45.716Z,1.75
2019-02-09T07:03:14.741Z,1.70
2019-02-09T07:05:42.769Z,2.30
2019-02-09T07:10:39.453Z,1.98
2019-02-09T07:13:07.681Z,2.65
2019-02-09T07:15:35.041Z,2.00
2019-02-09T07:18:04.622Z,1.70
2019-02-09T07:20:33.346Z,2.85
2019-02-09T07:23:01.280Z,1.70
2019-02-09T07:25:28.956Z,1.50
2019-02-09T07:27:56.899Z,1.63
2019-02-09T07:30:25.618Z,2.25
2019-02-09T07:32:53.068Z,4.83
2019-02-09T07:35:20.474Z,1.45
2019-02-09T07:37:48.492Z,1.30
2019-02-09T07:40:17.767Z,1.70
2019-02-09T07:42:46.997Z,1.60
2019-02-09T07:45:19.047Z,1.70
2019-02-09T07:47:47.073Z,2.25
2019-02-09T07:50:15.904Z,1.50
2019-02-09T07:52:45.395Z,1.55
2019-02-09T07:55:14.492Z,1.90
2019-02-09T07:57:43.606Z,1.60
2019-02-09T08:00:15.599Z,1.65
2019-02-09T08:02:43.854Z,1.85
2019-02-09T08:05:11.525Z,1.50
2019-02-09T08:10:11.198Z,1.90
2019-02-09T08:12:38.809Z,2.30
2019-02-09T08:15:11.221Z,2.50
2019-02-09T08:17:39.013Z,1.60
2019-02-09T08:20:08.563Z,1.95
2019-02-09T08:22:36.660Z,2.00
2019-02-09T08:25:05.721Z,2.90
2019-02-09T08:27:34.074Z,1.95
2019-02-09T08:30:01.549Z,1.70
2019-02-09T08:32:29.727Z,1.50
2019-02-09T08:34:57.953Z,1.47
2019-02-09T08:37:25.350Z,1.85
2019-02-09T08:39:52.886Z,1.70
2019-02-09T08:42:20.919Z,2.07
2019-02-09T08:44:48.455Z,1.40
2019-02-09T08:47:16.796Z,1.80
2019-02-09T08:49:45.568Z,1.40
2019-02-09T08:52:14.321Z,1.10
2019-02-09T08:54:43.455Z,1.45
2019-02-09T08:57:11.198Z,1.30
2019-02-09T08:59:38.863Z,2.45
2019-02-09T09:02:06.228Z,1.53
2019-02-09T09:04:34.233Z,2.30
2019-02-09T09:07:01.901Z,1.77
2019-02-09T09:09:29.843Z,1.80
2019-02-09T09:11:57.428Z,4.13
2019-02-09T09:14:25.618Z,5.75
2019-02-09T09:16:53.081Z,2.30
2019-02-09T09:19:21.394Z,3.10
2019-02-09T09:21:49.522Z,4.90
2019-02-09T09:24:17.765Z,1.60
2019-02-09T09:29:14.516Z,2.60
2019-02-09T09:31:42.481Z,2.15
2019-02-09T09:34:10.481Z,3.40
2019-02-09T09:36:38.042Z,7.57
2019-02-09T09:39:08.546Z,3.27
2019-02-09T09:43:31.787Z,3.17
2019-02-09T09:45:59.110Z,1.50
2019-02-09T09:51:12.504Z,1.30
2019-02-09T09:53:42.313Z,3.10
2019-02-09T09:56:10.250Z,3.55
2019-02-09T09:58:40.114Z,3.45
2019-02-09T10:01:07.874Z,4.00
2019-02-09T10:05:58.969Z,4.92
2019-02-09T10:08:28.144Z,2.00
2019-02-09T10:10:56.225Z,3.05
2019-02-09T10:13:27.948Z,4.05
2019-02-09T10:15:55.810Z,2.50
2019-02-09T10:18:24.006Z,4.10
2019-02-09T10:20:54.037Z,3.60
2019-02-09T10:23:22.425Z,3.45
2019-02-09T10:25:51.164Z,3.75
2019-02-09T10:28:19.517Z,2.70
2019-02-09T10:30:49.248Z,5.00
2019-02-09T10:33:17.097Z,4.85
2019-02-09T10:35:46.789Z,5.20
2019-02-09T10:38:16.620Z,3.80
2019-02-09T10:40:45.613Z,4.70
2019-02-09T10:43:14.652Z,4.35
2019-02-09T10:45:42.972Z,4.25
2019-02-09T10:48:12.967Z,5.30
2019-02-09T10:50:44.992Z,4.40
2019-02-09T10:53:14.627Z,5.35
2019-02-09T10:55:42.039Z,8.30
2019-02-09T10:58:10.661Z,6.50
2019-02-09T11:01:06.928Z,5.30
2019-02-09T11:03:35.580Z,5.05
2019-02-09T11:06:03.083Z,4.15
2019-02-09T11:08:32.313Z,4.00
2019-02-09T11:10:59.750Z,7.50
2019-02-09T11:13:28.891Z,3.70
2019-02-09T11:15:57.230Z,6.55
2019-02-09T11:18:27.291Z,6.95
2019-02-09T11:20:55.148Z,6.10
2019-02-09T11:23:25.035Z,3.80
2019-02-09T11:25:52.928Z,4.87
2019-02-09T11:28:21.561Z,5.50
2019-02-09T11:33:18.726Z,6.03
2019-02-09T11:35:46.993Z,2.10
2019-02-09T11:38:16.820Z,3.83
2019-02-09T11:40:44.569Z,3.10
2019-02-09T11:43:14.182Z,2.40
2019-02-09T11:45:41.891Z,5.20
2019-02-09T11:48:11.446Z,3.65
2019-02-09T11:53:09.061Z,2.95
2019-02-09T11:55:37.992Z,3.20
2019-02-09T11:58:07.604Z,10.15
2019-02-09T12:00:42.420Z,8.30
2019-02-09T12:03:14.888Z,5.00
2019-02-09T12:08:13.222Z,6.70
2019-02-09T12:10:43.250Z,4.07
2019-02-09T12:13:14.225Z,5.05
2019-02-09T12:15:44.577Z,6.10
2019-02-09T12:18:14.906Z,3.50
2019-02-09T12:23:14.276Z,3.90
2019-02-09T12:25:43.754Z,5.00
2019-02-09T12:28:11.938Z,5.90
2019-02-09T12:30:40.999Z,4.00
2019-02-09T12:33:09.167Z,7.40
2019-02-09T12:35:39.214Z,5.80
2019-02-09T12:38:07.797Z,6.25
2019-02-09T12:42:14.186Z,8.87
2019-02-09T12:44:45.898Z,3.80
2019-02-09T12:47:15.922Z,6.15
2019-02-09T12:49:45.012Z,5.50
2019-02-09T12:52:14.106Z,7.30
2019-02-09T12:54:43.858Z,5.00
2019-02-09T12:57:14.541Z,5.05
2019-02-09T12:59:44.388Z,5.20
2019-02-09T13:02:11.734Z,8.40
2019-02-09T13:04:40.738Z,3.00
2019-02-09T13:07:09.094Z,3.90
2019-02-09T13:09:38.707Z,4.10
2019-02-09T13:12:07.894Z,4.20
2019-02-09T13:14:38.150Z,3.65
2019-02-09T13:19:36.073Z,6.30
2019-02-09T13:22:04.836Z,6.60
2019-02-09T13:24:34.192Z,4.10
2019-02-09T13:27:05.009Z,7.80
2019-02-09T13:29:34.673Z,8.07
2019-02-09T13:32:04.837Z,6.05
2019-02-09T13:36:59.881Z,5.70
2019-02-09T13:39:30.304Z,5.35
2019-02-09T13:41:59.505Z,6.40
2019-02-09T13:44:29.250Z,6.40
2019-02-09T13:46:58.921Z,6.43
2019-02-09T13:49:27.324Z,5.90
2019-02-09T13:51:56.569Z,7.10
2019-02-09T13:54:25.128Z,4.70
2019-02-09T13:56:52.826Z,5.00
2019-02-09T13:59:22.412Z,5.27
2019-02-09T14:01:49.827Z,7.60
2019-02-09T14:04:18.847Z,6.70
2019-02-09T14:06:47.788Z,8.90
2019-02-09T14:09:17.342Z,4.75
2019-02-09T14:11:48.099Z,6.57
2019-02-09T14:14:17.556Z,3.33
2019-02-09T14:19:14.971Z,3.95
2019-02-09T14:24:12.815Z,6.15
2019-02-09T14:26:41.197Z,4.20
2019-02-09T14:29:11.439Z,5.50
2019-02-09T14:31:40.885Z,5.95
2019-02-09T14:34:09.997Z,7.00
2019-02-09T14:36:38.259Z,4.70
2019-02-09T14:39:10.847Z,7.50
2019-02-09T14:41:40.536Z,5.30
2019-02-09T14:44:10.532Z,3.95
2019-02-09T14:46:40.029Z,6.30
2019-02-09T14:49:12.231Z,3.60
2019-02-09T14:51:42.009Z,3.10
2019-02-09T14:54:12.401Z,3.30
2019-02-09T14:56:41.280Z,4.90
2019-02-09T14:59:10.374Z,5.05
2019-02-09T15:01:41.471Z,5.53
2019-02-09T15:06:54.223Z,7.45
2019-02-09T15:09:22.770Z,5.60
2019-02-09T15:11:51.353Z,4.40
2019-02-09T15:14:19.314Z,3.67
2019-02-09T15:16:51.249Z,4.80
2019-02-09T15:19:25.017Z,4.60
2019-02-09T15:21:58.458Z,6.35
2019-02-09T15:24:29.456Z,5.75
2019-02-09T15:26:59.687Z,3.00
2019-02-09T15:29:29.255Z,4.35
2019-02-09T15:31:59.683Z,4.27
2019-02-09T15:34:29.903Z,5.27
2019-02-09T15:36:59.854Z,5.90
2019-02-09T15:39:28.580Z,4.33
2019-02-09T15:41:58.631Z,4.50
2019-02-09T15:46:57.662Z,4.40
2019-02-09T15:49:27.958Z,6.00
2019-02-09T15:51:57.712Z,3.40
2019-02-09T15:54:26.467Z,3.05
2019-02-09T15:59:23.657Z,2.87
2019-02-09T16:01:52.645Z,3.50
2019-02-09T16:04:21.741Z,3.90
2019-02-09T16:06:52.150Z,3.80
2019-02-09T16:09:21.302Z,5.40
2019-02-09T16:11:50.773Z,6.10
2019-02-09T16:16:49.592Z,5.90
2019-02-09T16:19:21.995Z,3.60
2019-02-09T16:21:50.635Z,5.10
2019-02-09T16:24:19.060Z,2.80
2019-02-09T16:26:48.378Z,3.45
2019-02-09T16:29:18.185Z,2.70
2019-02-09T16:31:46.930Z,2.80
2019-02-09T16:36:46.319Z,4.50
2019-02-09T16:41:59.272Z,3.30
2019-02-09T16:44:28.080Z,8.60
2019-02-09T16:46:57.113Z,7.15
2019-02-09T16:50:55.118Z,4.55
2019-02-09T16:53:23.252Z,6.83
2019-02-09T16:55:53.002Z,6.40
2019-02-09T16:58:21.458Z,6.10
2019-02-09T17:00:51.104Z,10.90
2019-02-09T17:03:19.002Z,9.60
2019-02-09T17:05:48.638Z,6.60
2019-02-09T17:08:17.327Z,9.85
2019-02-09T17:10:48.008Z,8.70
2019-02-09T17:13:17.736Z,6.90
2019-02-09T17:15:48.124Z,8.00
2019-02-09T17:18:17.691Z,7.40
2019-02-09T17:20:47.891Z,10.45
2019-02-09T17:23:16.381Z,6.60
2019-02-09T17:25:45.673Z,16.97
2019-02-09T17:28:13.942Z,16.80
2019-02-09T17:30:42.228Z,17.50
2019-02-09T17:33:12.213Z,12.00
2019-02-09T17:35:44.119Z,9.85
2019-02-09T17:38:13.575Z,4.70
2019-02-09T17:40:46.783Z,9.15
2019-02-09T17:43:23.282Z,9.90
2019-02-09T17:46:06.030Z,8.40
2019-02-09T17:48:36.392Z,9.15
2019-02-09T17:51:06.511Z,8.20
2019-02-09T17:53:35.829Z,9.73
2019-02-09T17:56:06.178Z,10.05
2019-02-09T17:58:34.827Z,11.70
2019-02-09T18:01:06.255Z,10.30
2019-02-09T18:06:07.248Z,8.10
2019-02-09T18:08:37.249Z,7.30
2019-02-09T18:11:06.785Z,8.60
2019-02-09T18:15:32.398Z,12.15
2019-02-09T18:18:02.121Z,9.65
2019-02-09T18:20:32.670Z,11.40
2019-02-09T18:23:01.831Z,12.40
2019-02-09T18:25:31.271Z,10.90
2019-02-09T18:30:30.157Z,12.70
2019-02-09T18:32:57.792Z,9.77
2019-02-09T18:35:28.344Z,11.40
2019-02-09T18:37:58.329Z,10.90
2019-02-09T18:42:01.723Z,9.98
2019-02-09T18:44:31.204Z,9.85
2019-02-09T18:47:00.715Z,6.80
2019-02-09T18:49:45.789Z,13.40
2019-02-09T18:52:14.911Z,10.90
2019-02-09T18:54:44.211Z,10.40
2019-02-09T18:57:13.529Z,12.70
2019-02-09T18:59:43.404Z,13.00
2019-02-09T19:04:28.505Z,10.40
2019-02-09T19:06:56.768Z,8.10
2019-02-09T19:09:27.137Z,12.10
2019-02-09T19:11:56.542Z,12.50
2019-02-09T19:14:25.593Z,12.30
2019-02-09T19:17:30.106Z,10.00
2019-02-09T19:22:28.809Z,10.30
2019-02-09T19:24:58.105Z,8.10
2019-02-09T19:27:26.200Z,10.60
2019-02-09T19:29:55.503Z,7.50
2019-02-09T19:32:26.125Z,13.13
2019-02-09T19:34:55.100Z,11.53
2019-02-09T19:37:23.379Z,12.05
2019-02-09T19:41:21.405Z,14.95
2019-02-09T19:43:49.362Z,13.30
2019-02-09T19:46:16.696Z,15.45
2019-02-09T19:48:45.438Z,9.60
2019-02-09T19:51:13.472Z,11.85
2019-02-09T19:53:41.271Z,8.80
2019-02-09T19:56:10.468Z,10.30
2019-02-09T19:58:39.390Z,9.30
2019-02-09T20:01:07.533Z,10.20
2019-02-09T20:03:36.958Z,29.15
2019-02-09T20:06:06.287Z,13.40
2019-02-09T20:08:33.901Z,17.60
2019-02-09T20:11:01.455Z,11.40
2019-02-09T20:13:28.806Z,13.50
2019-02-09T20:15:57.619Z,11.55
2019-02-09T20:18:27.017Z,9.20
2019-02-09T20:20:55.952Z,7.40
2019-02-09T20:23:24.416Z,6.10
2019-02-09T20:25:51.779Z,8.55
2019-02-09T20:28:20.310Z,11.20
2019-02-09T20:30:49.549Z,8.70
2019-02-09T20:33:17.488Z,7.75
2019-02-09T20:35:45.564Z,10.50
2019-02-09T20:38:13.566Z,9.70
2019-02-09T20:40:47.643Z,8.05
2019-02-09T20:43:16.856Z,10.17
2019-02-09T20:48:13.816Z,10.23
2019-02-09T20:50:43.031Z,6.20
2019-02-09T20:53:10.748Z,8.50
2019-02-09T20:55:39.448Z,9.95
2019-02-09T20:58:09.056Z,10.30
2019-02-09T21:00:37.190Z,9.10
2019-02-09T21:03:05.630Z,5.85
2019-02-09T21:05:36.543Z,9.00
2019-02-09T21:08:03.773Z,8.40
2019-02-09T21:13:15.211Z,6.35
2019-02-09T21:15:43.003Z,9.40
2019-02-09T21:18:13.202Z,12.05
2019-02-09T21:20:41.856Z,11.57
2019-02-09T21:23:11.339Z,5.60
2019-02-09T21:25:42.183Z,16.87
2019-02-09T21:28:12.264Z,7.75
2019-02-09T21:30:40.055Z,7.87
2019-02-09T21:33:09.256Z,8.00
2019-02-09T21:35:43.692Z,9.30
2019-02-09T21:38:10.433Z,10.85
2019-02-09T21:40:38.538Z,9.90
2019-02-09T21:45:44.593Z,5.90
2019-02-09T21:49:15.848Z,7.40
2019-02-09T21:51:44.508Z,7.00
2019-02-09T21:54:13.435Z,11.00
2019-02-09T21:56:43.124Z,7.40
2019-02-09T21:59:12.184Z,6.20
2019-02-09T22:01:41.781Z,4.60
2019-02-09T22:04:11.297Z,6.35
2019-02-09T22:08:19.565Z,8.90
2019-02-09T22:10:44.823Z,7.95
2019-02-09T22:13:13.611Z,6.05
2019-02-09T22:15:41.499Z,7.60
2019-02-09T22:18:11.129Z,5.67
2019-02-09T22:20:40.555Z,7.97
2019-02-09T22:23:10.065Z,5.75
2019-02-09T22:25:39.541Z,8.80
2019-02-09T22:28:08.709Z,6.90
2019-02-09T22:30:38.231Z,5.90
2019-02-09T22:33:07.935Z,8.13
2019-02-09T22:35:40.945Z,7.25
2019-02-09T22:38:12.769Z,5.35
2019-02-09T22:40:42.444Z,8.55
2019-02-09T22:43:12.081Z,7.20
2019-02-09T22:45:43.197Z,6.55
2019-02-09T22:48:12.789Z,6.10
2019-02-09T22:50:44.060Z,6.10
2019-02-09T22:53:12.933Z,6.90
2019-02-09T22:55:42.033Z,6.80
2019-02-09T22:58:10.731Z,5.95
2019-02-09T23:01:18.395Z,4.50
2019-02-09T23:04:08.981Z,7.70
2019-02-09T23:07:03.136Z,11.77
2019-02-09T23:09:32.864Z,6.50
2019-02-09T23:12:01.571Z,5.90
2019-02-09T23:14:30.405Z,4.80
2019-02-09T23:16:58.594Z,5.45
2019-02-09T23:19:28.205Z,9.70
2019-02-09T23:21:58.085Z,5.70
2019-02-09T23:24:28.049Z,6.75
2019-02-09T23:26:59.206Z,4.80
2019-02-09T23:29:28.099Z,8.17
2019-02-09T23:31:56.648Z,4.35
2019-02-09T23:34:26.213Z,5.25
2019-02-09T23:36:55.632Z,4.30
2019-02-09T23:39:24.673Z,6.25
2019-02-09T23:41:54.076Z,5.90
2019-02-09T23:44:23.588Z,5.05
2019-02-09T23:46:53.891Z,10.50
2019-02-09T23:49:23.125Z,5.40
2019-02-09T23:51:52.479Z,4.80
2019-02-09T23:54:22.873Z,6.30
2019-02-09T23:56:52.309Z,6.20
